Time;durP1;ratioP1;P1;durP2;ratioP2;P2;SDS_P1;SDS_P2;PMS_P1;PMS_P2;Temp;Humidity;BMP_temperature;BMP_pressure;BME280_temperature;BME280_humidity;BME280_pressure;Samples;Min_cycle;Max_cycle;Signal;HPM_P1;HPM_P2
2023/05/27 00:00:06;;;;;;;10.25;3.80;;;;;;;;;;5095661;28;20028;-74
2023/05/27 00:02:32;;;;;;;12.88;4.05;;;;;;;;;;5094588;28;20020;-74
2023/05/27 00:04:58;;;;;;;14.48;3.67;;;;;;;;;;5094659;28;20028;-74
2023/05/27 00:07:24;;;;;;;13.65;3.97;;;;;;;;;;5094406;28;20031;-74
2023/05/27 00:09:50;;;;;;;14.25;4.53;;;;;;;;;;5094558;28;20103;-74
2023/05/27 00:12:22;;;;;;;15.70;4.38;;;;;;;;;;5094361;28;20059;-74
2023/05/27 00:14:49;;;;;;;13.63;3.95;;;;;;;;;;5094290;28;20519;-74
2023/05/27 00:17:14;;;;;;;13.65;3.78;;;;;;;;;;5094340;28;20030;-74
2023/05/27 00:19:44;;;;;;;9.88;3.90;;;;;;;;;;5092914;28;20114;-73
2023/05/27 00:22:11;;;;;;;13.77;4.28;;;;;;;;;;5094398;28;20024;-73
2023/05/27 00:24:39;;;;;;;9.13;3.30;;;;;;;;;;5094067;28;20483;-73
2023/05/27 00:27:08;;;;;;;10.20;3.60;;;;;;;;;;5093242;28;20052;-74
2023/05/27 00:29:34;;;;;;;9.10;3.40;;;;;;;;;;5092579;28;20028;-74
2023/05/27 00:32:02;;;;;;;11.38;4.45;;;;;;;;;;5094230;28;20042;-74
2023/05/27 00:34:28;;;;;;;16.30;4.45;;;;;;;;;;5094122;28;20051;-73
2023/05/27 00:36:54;;;;;;;13.90;4.30;;;;;;;;;;5092402;28;20043;-73
2023/05/27 00:39:21;;;;;;;11.68;3.83;;;;;;;;;;5093832;28;20059;-73
2023/05/27 00:41:49;;;;;;;18.15;3.83;;;;;;;;;;5093968;28;20023;-73
2023/05/27 00:44:15;;;;;;;14.32;4.80;;;;;;;;;;5093883;28;20024;-73
2023/05/27 00:46:41;;;;;;;15.18;4.25;;;;;;;;;;5093580;28;20099;-73
2023/05/27 00:49:07;;;;;;;12.57;3.85;;;;;;;;;;5093439;28;20032;-73
2023/05/27 00:51:33;;;;;;;15.77;4.18;;;;;;;;;;5093514;28;20028;-73
2023/05/27 00:53:59;;;;;;;16.83;4.40;;;;;;;;;;5093401;28;20052;-73
2023/05/27 00:56:26;;;;;;;15.98;4.30;;;;;;;;;;5093668;28;20024;-73
2023/05/27 00:58:52;;;;;;;18.17;4.97;;;;;;;;;;5093606;28;20020;-74
2023/05/27 01:01:19;;;;;;;12.57;4.13;;;;;;;;;;5093282;28;20070;-73
2023/05/27 01:03:45;;;;;;;13.65;4.10;;;;;;;;;;5093525;28;20110;-74
2023/05/27 01:06:30;;;;;;;9.75;3.30;;;;;;;;;;5093188;28;20020;-74
2023/05/27 01:08:59;;;;;;;13.68;4.82;;;;;;;;;;5093074;28;20024;-73
2023/05/27 01:11:28;;;;;;;13.57;3.80;;;;;;;;;;5093399;28;20035;-73
2023/05/27 01:13:59;;;;;;;13.30;3.95;;;;;;;;;;5093066;28;20028;-73
2023/05/27 01:16:27;;;;;;;14.15;4.32;;;;;;;;;;5092953;28;20378;-73
2023/05/27 01:18:54;;;;;;;11.10;3.97;;;;;;;;;;5093075;28;20601;-73
2023/05/27 01:21:24;;;;;;;12.77;3.97;;;;;;;;;;5092976;28;20020;-73
2023/05/27 01:23:51;;;;;;;11.57;3.72;;;;;;;;;;5093225;28;20020;-73
2023/05/27 01:26:18;;;;;;;12.85;4.55;;;;;;;;;;5092851;28;20020;-73
2023/05/27 01:28:44;;;;;;;13.63;4.03;;;;;;;;;;5092734;28;20085;-73
2023/05/27 01:31:10;;;;;;;9.45;3.95;;;;;;;;;;5092798;28;20362;-73
2023/05/27 01:33:38;;;;;;;14.90;4.10;;;;;;;;;;5092738;28;20454;-73
2023/05/27 01:36:08;;;;;;;11.90;4.03;;;;;;;;;;5092592;28;20030;-73
2023/05/27 01:38:37;;;;;;;8.75;3.83;;;;;;;;;;5090988;28;20052;-73
2023/05/27 01:41:03;;;;;;;12.90;3.72;;;;;;;;;;5092636;28;20128;-73
2023/05/27 01:43:29;;;;;;;11.70;3.58;;;;;;;;;;5092933;28;20450;-73
2023/05/27 01:45:55;;;;;;;14.68;4.13;;;;;;;;;;5092578;28;20020;-73
2023/05/27 01:48:21;;;;;;;13.05;3.95;;;;;;;;;;5092569;28;20363;-73
2023/05/27 01:50:47;;;;;;;10.60;4.20;;;;;;;;;;5092493;28;20044;-73
2023/05/27 01:53:13;;;;;;;16.73;4.03;;;;;;;;;;5092489;28;20028;-73
2023/05/27 01:55:39;;;;;;;13.05;4.00;;;;;;;;;;5092756;28;20024;-73
2023/05/27 01:58:06;;;;;;;11.48;4.53;;;;;;;;;;5092476;28;20054;-73
2023/05/27 02:00:32;;;;;;;11.82;4.32;;;;;;;;;;5092627;28;20028;-73
2023/05/27 02:02:58;;;;;;;10.45;3.72;;;;;;;;;;5092400;28;20024;-73
2023/05/27 02:05:24;;;;;;;15.55;4.50;;;;;;;;;;5092473;28;20452;-73
2023/05/27 02:07:50;;;;;;;14.32;3.95;;;;;;;;;;5092321;28;20027;-73
2023/05/27 02:10:16;;;;;;;15.93;4.35;;;;;;;;;;5092340;28;20028;-73
2023/05/27 02:12:42;;;;;;;12.10;3.70;;;;;;;;;;5092340;28;20020;-73
2023/05/27 02:15:08;;;;;;;10.30;3.80;;;;;;;;;;5092275;28;20051;-73
2023/05/27 02:17:34;;;;;;;15.95;4.18;;;;;;;;;;5092225;28;20024;-73
2023/05/27 02:20:00;;;;;;;11.70;3.92;;;;;;;;;;5092235;28;20029;-73
2023/05/27 02:22:27;;;;;;;10.07;3.55;;;;;;;;;;5092169;28;20028;-73
2023/05/27 02:24:53;;;;;;;13.55;3.58;;;;;;;;;;5092179;28;20077;-73
2023/05/27 02:27:20;;;;;;;15.60;4.60;;;;;;;;;;5092412;28;20374;-73
2023/05/27 02:29:46;;;;;;;14.70;4.30;;;;;;;;;;5092316;28;20020;-73
2023/05/27 02:32:12;;;;;;;15.77;3.83;;;;;;;;;;5092308;28;20032;-73
2023/05/27 02:34:38;;;;;;;10.90;3.70;;;;;;;;;;5092111;28;20024;-73
2023/05/27 02:37:06;;;;;;;13.63;3.72;;;;;;;;;;5091735;28;20083;-73
2023/05/27 02:39:32;;;;;;;16.05;4.38;;;;;;;;;;5092084;28;20076;-73
2023/05/27 02:41:58;;;;;;;11.13;3.85;;;;;;;;;;5092351;28;20405;-73
2023/05/27 02:44:25;;;;;;;18.15;4.07;;;;;;;;;;5092002;28;20036;-73
2023/05/27 02:46:51;;;;;;;18.52;3.83;;;;;;;;;;5092171;28;20103;-73
2023/05/27 02:49:18;;;;;;;10.85;3.58;;;;;;;;;;5092021;28;20166;-73
2023/05/27 02:51:44;;;;;;;12.68;3.80;;;;;;;;;;5095584;28;20348;-73
2023/05/27 02:54:10;;;;;;;11.10;3.60;;;;;;;;;;5095940;28;20028;-73
2023/05/27 02:56:36;;;;;;;14.60;4.22;;;;;;;;;;5095663;28;20028;-74
2023/05/27 02:59:02;;;;;;;13.10;3.42;;;;;;;;;;5095882;28;20025;-73
2023/05/27 03:01:28;;;;;;;14.48;3.92;;;;;;;;;;5094242;28;20336;-73
2023/05/27 03:03:54;;;;;;;11.00;3.83;;;;;;;;;;5095421;28;20020;-73
2023/05/27 03:06:20;;;;;;;14.30;3.90;;;;;;;;;;5095542;28;20020;-73
2023/05/27 03:08:46;;;;;;;16.65;3.92;;;;;;;;;;5095304;28;20032;-73
2023/05/27 03:11:12;;;;;;;8.13;3.92;;;;;;;;;;5095406;28;20023;-73
2023/05/27 03:13:38;;;;;;;16.42;4.80;;;;;;;;;;5095259;28;20024;-73
2023/05/27 03:16:05;;;;;;;11.82;3.72;;;;;;;;;;5095239;28;20020;-73
2023/05/27 03:18:31;;;;;;;16.67;4.43;;;;;;;;;;5095397;28;20024;-73
2023/05/27 03:20:57;;;;;;;10.25;3.42;;;;;;;;;;5094992;28;20058;-73
2023/05/27 03:23:23;;;;;;;13.52;3.88;;;;;;;;;;5094884;28;20115;-73
2023/05/27 03:25:49;;;;;;;19.02;3.95;;;;;;;;;;5094978;28;20450;-73
2023/05/27 03:28:16;;;;;;;10.27;3.70;;;;;;;;;;5094901;28;20088;-73
2023/05/27 03:30:43;;;;;;;13.60;3.47;;;;;;;;;;5095278;28;20024;-73
2023/05/27 03:33:09;;;;;;;16.60;3.95;;;;;;;;;;5095186;28;20035;-73
2023/05/27 03:35:35;;;;;;;14.40;4.30;;;;;;;;;;5094957;28;20048;-73
2023/05/27 03:38:01;;;;;;;13.32;3.55;;;;;;;;;;5093146;28;20088;-73
2023/05/27 03:40:27;;;;;;;12.35;3.78;;;;;;;;;;5095027;28;20428;-73
2023/05/27 03:42:54;;;;;;;14.07;4.45;;;;;;;;;;5094661;28;20481;-73
2023/05/27 03:45:20;;;;;;;14.85;3.83;;;;;;;;;;5094805;28;20020;-73
2023/05/27 03:47:46;;;;;;;16.52;3.72;;;;;;;;;;5094636;28;20100;-73
2023/05/27 03:50:12;;;;;;;15.88;3.72;;;;;;;;;;5094662;28;20048;-73
2023/05/27 03:52:38;;;;;;;16.67;3.83;;;;;;;;;;5094649;28;20074;-73
2023/05/27 03:55:04;;;;;;;12.00;3.17;;;;;;;;;;5094607;28;20032;-73
2023/05/27 03:57:30;;;;;;;12.07;3.60;;;;;;;;;;5094554;28;20024;-73
2023/05/27 03:59:56;;;;;;;14.05;3.70;;;;;;;;;;5094625;28;20031;-73
2023/05/27 04:02:22;;;;;;;16.60;4.00;;;;;;;;;;5094051;28;20382;-73
2023/05/27 04:04:48;;;;;;;12.98;3.30;;;;;;;;;;5094363;28;20035;-73
2023/05/27 04:07:14;;;;;;;10.10;4.00;;;;;;;;;;5094281;28;20098;-73
2023/05/27 04:09:40;;;;;;;16.30;3.55;;;;;;;;;;5094461;28;20032;-73
2023/05/27 04:12:07;;;;;;;10.68;3.92;;;;;;;;;;5094229;28;20024;-73
2023/05/27 04:14:33;;;;;;;14.52;5.03;;;;;;;;;;5094455;28;20028;-73
2023/05/27 04:16:59;;;;;;;14.70;3.67;;;;;;;;;;5094076;28;20031;-73
2023/05/27 04:19:25;;;;;;;10.40;2.95;;;;;;;;;;5094105;28;20024;-73
2023/05/27 04:21:51;;;;;;;13.02;4.00;;;;;;;;;;5094318;28;20050;-73
2023/05/27 04:24:17;;;;;;;10.80;3.63;;;;;;;;;;5093956;28;20028;-74
2023/05/27 04:26:45;;;;;;;14.82;3.75;;;;;;;;;;5093974;28;20371;-73
2023/05/27 04:29:11;;;;;;;12.68;3.50;;;;;;;;;;5093154;28;20399;-74
2023/05/27 04:31:37;;;;;;;14.70;4.57;;;;;;;;;;5093634;28;20065;-74
2023/05/27 04:34:03;;;;;;;11.93;3.83;;;;;;;;;;5093615;28;20032;-75
2023/05/27 04:36:33;;;;;;;15.70;4.45;;;;;;;;;;5095527;28;20409;-75
2023/05/27 04:39:01;;;;;;;16.88;4.38;;;;;;;;;;5112790;28;20051;-75
2023/05/27 04:41:28;;;;;;;21.25;4.97;;;;;;;;;;5114312;28;20489;-75
2023/05/27 04:43:54;;;;;;;11.90;4.10;;;;;;;;;;5113980;28;20015;-75
2023/05/27 04:46:21;;;;;;;15.93;3.70;;;;;;;;;;5101470;28;20042;-75
2023/05/27 04:48:47;;;;;;;17.73;3.92;;;;;;;;;;5112977;28;20038;-75
2023/05/27 04:51:15;;;;;;;11.63;3.70;;;;;;;;;;5113753;28;20032;-75
2023/05/27 04:53:41;;;;;;;12.07;3.95;;;;;;;;;;5113961;28;20111;-75
2023/05/27 04:56:08;;;;;;;13.65;4.22;;;;;;;;;;5113685;28;20027;-75
2023/05/27 04:58:34;;;;;;;9.48;2.88;;;;;;;;;;5099496;28;20032;-75
2023/05/27 05:01:01;;;;;;;10.85;3.30;;;;;;;;;;5093176;28;20020;-75
2023/05/27 05:03:36;;;;;;;9.98;3.13;;;;;;;;;;5093116;28;20410;-75
2023/05/27 05:06:03;;;;;;;10.00;3.20;;;;;;;;;;5092669;28;20020;-75
2023/05/27 05:08:29;;;;;;;8.30;2.97;;;;;;;;;;5072804;28;20033;-75
2023/05/27 05:10:55;;;;;;;11.77;3.15;;;;;;;;;;5054919;28;20134;-75
2023/05/27 05:13:21;;;;;;;9.73;3.78;;;;;;;;;;5083624;28;20031;-75
2023/05/27 05:15:47;;;;;;;15.45;3.17;;;;;;;;;;5089919;28;20140;-75
2023/05/27 05:18:13;;;;;;;9.68;3.35;;;;;;;;;;5092888;28;20653;-75
2023/05/27 05:20:40;;;;;;;11.63;3.88;;;;;;;;;;5092852;28;20038;-75
2023/05/27 05:23:08;;;;;;;11.82;2.90;;;;;;;;;;5092758;28;20103;-75
2023/05/27 05:25:37;;;;;;;10.02;3.17;;;;;;;;;;5090953;28;20462;-75
2023/05/27 05:28:06;;;;;;;11.48;3.78;;;;;;;;;;5092558;28;20039;-75
2023/05/27 05:30:32;;;;;;;10.73;3.60;;;;;;;;;;5092703;28;20028;-75
2023/05/27 05:32:59;;;;;;;10.75;3.00;;;;;;;;;;5092715;28;20031;-75
2023/05/27 05:35:25;;;;;;;11.50;3.45;;;;;;;;;;5092796;28;20572;-75
2023/05/27 05:37:51;;;;;;;8.95;2.75;;;;;;;;;;5091460;28;20479;-73
2023/05/27 05:40:17;;;;;;;14.02;3.70;;;;;;;;;;5092564;28;20028;-73
2023/05/27 05:42:43;;;;;;;11.60;3.20;;;;;;;;;;5092991;28;20036;-73
2023/05/27 05:45:09;;;;;;;11.35;3.47;;;;;;;;;;5092609;28;20035;-73
2023/05/27 05:47:35;;;;;;;12.93;3.47;;;;;;;;;;5092806;28;20020;-73
2023/05/27 05:50:01;;;;;;;10.98;3.30;;;;;;;;;;5092483;28;20237;-73
2023/05/27 05:52:27;;;;;;;7.82;3.15;;;;;;;;;;5092570;28;20099;-73
2023/05/27 05:54:53;;;;;;;11.40;3.03;;;;;;;;;;5092549;28;20358;-73
2023/05/27 05:57:19;;;;;;;9.65;3.22;;;;;;;;;;5092359;28;20078;-73
2023/05/27 05:59:45;;;;;;;10.75;3.78;;;;;;;;;;5092357;28;20463;-73
2023/05/27 06:02:11;;;;;;;13.85;3.33;;;;;;;;;;5092496;28;20020;-73
2023/05/27 06:04:37;;;;;;;9.23;3.65;;;;;;;;;;5092216;28;20485;-73
2023/05/27 06:07:03;;;;;;;11.63;4.28;;;;;;;;;;5092368;28;20024;-73
2023/05/27 06:09:29;;;;;;;11.18;4.30;;;;;;;;;;5087063;28;20032;-73
2023/05/27 06:11:55;;;;;;;11.15;3.80;;;;;;;;;;5091926;28;20093;-73
2023/05/27 06:14:22;;;;;;;13.95;3.60;;;;;;;;;;5092117;28;20039;-73
2023/05/27 06:16:48;;;;;;;12.48;3.90;;;;;;;;;;5092634;28;20020;-73
2023/05/27 06:19:14;;;;;;;12.82;3.55;;;;;;;;;;5092302;28;20032;-74
2023/05/27 06:21:41;;;;;;;9.30;3.60;;;;;;;;;;5092160;28;20439;-74
2023/05/27 06:24:07;;;;;;;9.43;3.60;;;;;;;;;;5092507;28;20020;-73
2023/05/27 06:26:33;;;;;;;15.10;3.78;;;;;;;;;;5077494;28;20069;-73
2023/05/27 06:29:00;;;;;;;10.45;4.25;;;;;;;;;;5096543;28;20038;-74
2023/05/27 06:31:27;;;;;;;11.82;3.63;;;;;;;;;;5096361;28;20592;-74
2023/05/27 06:33:53;;;;;;;10.70;3.50;;;;;;;;;;5077872;28;20020;-73
2023/05/27 06:36:19;;;;;;;11.48;3.28;;;;;;;;;;5078025;28;20016;-74
2023/05/27 06:38:45;;;;;;;9.25;3.22;;;;;;;;;;5094843;28;20059;-74
2023/05/27 06:41:11;;;;;;;9.45;3.33;;;;;;;;;;5096067;28;20074;-74
2023/05/27 06:43:37;;;;;;;11.65;4.30;;;;;;;;;;5096015;28;20400;-74
2023/05/27 06:46:03;;;;;;;14.80;4.13;;;;;;;;;;5095861;28;20027;-74
2023/05/27 06:48:29;;;;;;;13.07;4.05;;;;;;;;;;5077468;28;20032;-74
2023/05/27 06:50:55;;;;;;;11.50;3.30;;;;;;;;;;5095816;28;20024;-74
2023/05/27 06:53:21;;;;;;;9.63;3.55;;;;;;;;;;5095825;28;20024;-74
2023/05/27 06:55:47;;;;;;;10.77;3.97;;;;;;;;;;5095744;28;20059;-74
2023/05/27 06:58:13;;;;;;;15.88;3.85;;;;;;;;;;5095582;28;20431;-74
2023/05/27 07:00:39;;;;;;;10.40;3.28;;;;;;;;;;5095682;28;20028;-74
2023/05/27 07:03:05;;;;;;;16.52;3.95;;;;;;;;;;5095688;28;20107;-74
2023/05/27 07:05:31;;;;;;;8.98;3.03;;;;;;;;;;5095573;28;20074;-74
2023/05/27 07:07:57;;;;;;;10.35;3.28;;;;;;;;;;5095444;28;20020;-74
2023/05/27 07:10:23;;;;;;;13.35;3.78;;;;;;;;;;5075260;28;20024;-74
2023/05/27 07:12:49;;;;;;;9.35;3.00;;;;;;;;;;5090990;28;20020;-76
2023/05/27 07:15:15;;;;;;;10.98;3.60;;;;;;;;;;5095717;28;20035;-75
2023/05/27 07:17:41;;;;;;;10.35;3.53;;;;;;;;;;5095374;28;20024;-75
2023/05/27 07:20:07;;;;;;;12.30;3.28;;;;;;;;;;5095378;28;20141;-75
2023/05/27 07:22:33;;;;;;;7.07;2.90;;;;;;;;;;5095274;28;20024;-75
2023/05/27 07:24:59;;;;;;;15.25;3.88;;;;;;;;;;5095279;28;20039;-75
2023/05/27 07:27:25;;;;;;;10.13;3.20;;;;;;;;;;5095240;28;20538;-75
2023/05/27 07:29:51;;;;;;;11.90;3.55;;;;;;;;;;5095147;28;20028;-75
2023/05/27 07:32:17;;;;;;;7.18;3.00;;;;;;;;;;5095053;28;20024;-74
2023/05/27 07:34:43;;;;;;;9.85;2.90;;;;;;;;;;5094961;28;20375;-74
2023/05/27 07:37:09;;;;;;;9.38;3.10;;;;;;;;;;5094452;28;20028;-74
2023/05/27 07:39:35;;;;;;;10.07;2.95;;;;;;;;;;5093759;28;20429;-74
2023/05/27 07:42:01;;;;;;;12.48;3.40;;;;;;;;;;5094923;28;20035;-74
2023/05/27 07:44:27;;;;;;;12.18;3.67;;;;;;;;;;5095173;28;20028;-74
2023/05/27 07:46:54;;;;;;;9.85;3.10;;;;;;;;;;5095166;28;20028;-74
2023/05/27 07:49:20;;;;;;;9.15;3.13;;;;;;;;;;5094742;28;20020;-74
2023/05/27 07:51:46;;;;;;;12.88;3.47;;;;;;;;;;5095029;28;20692;-74
2023/05/27 07:54:12;;;;;;;8.18;3.40;;;;;;;;;;5094658;28;20028;-74
2023/05/27 07:56:38;;;;;;;9.48;3.33;;;;;;;;;;5094709;28;20131;-74
2023/05/27 07:59:04;;;;;;;11.90;3.72;;;;;;;;;;5076249;28;20081;-74
2023/05/27 08:01:32;;;;;;;13.27;3.90;;;;;;;;;;5094802;28;20024;-74
2023/05/27 08:03:58;;;;;;;9.15;3.10;;;;;;;;;;5094747;28;20073;-74
2023/05/27 08:06:25;;;;;;;9.63;3.72;;;;;;;;;;5094518;28;20016;-74
2023/05/27 08:08:51;;;;;;;9.95;2.97;;;;;;;;;;5094847;28;20125;-74
2023/05/27 08:11:17;;;;;;;12.73;4.03;;;;;;;;;;5094455;28;20062;-74
2023/05/27 08:13:43;;;;;;;14.35;3.55;;;;;;;;;;5094295;28;20470;-74
2023/05/27 08:16:09;;;;;;;8.82;3.22;;;;;;;;;;5094295;28;20189;-75
2023/05/27 08:18:36;;;;;;;11.40;3.40;;;;;;;;;;5094501;28;20482;-74
2023/05/27 08:21:02;;;;;;;9.88;3.40;;;;;;;;;;5094111;28;20418;-74
2023/05/27 08:23:28;;;;;;;11.43;3.53;;;;;;;;;;5094125;28;20494;-74
2023/05/27 08:25:54;;;;;;;10.18;3.72;;;;;;;;;;5094098;28;20023;-74
2023/05/27 08:28:20;;;;;;;13.05;3.67;;;;;;;;;;5093867;28;20032;-75
2023/05/27 08:30:47;;;;;;;8.23;2.60;;;;;;;;;;5094246;28;20020;-74
2023/05/27 08:33:13;;;;;;;10.27;3.08;;;;;;;;;;5094253;28;20020;-74
2023/05/27 08:35:39;;;;;;;9.15;3.80;;;;;;;;;;5093944;28;20024;-74
2023/05/27 08:38:05;;;;;;;9.75;3.50;;;;;;;;;;5092504;28;20087;-74
2023/05/27 08:40:31;;;;;;;11.35;3.30;;;;;;;;;;5093852;28;20052;-74
2023/05/27 08:42:57;;;;;;;7.32;3.20;;;;;;;;;;5093676;28;20039;-75
2023/05/27 08:45:23;;;;;;;5.53;2.80;;;;;;;;;;5093682;28;20047;-74
2023/05/27 08:47:49;;;;;;;8.77;3.47;;;;;;;;;;5092956;28;20103;-74
2023/05/27 08:50:15;;;;;;;10.55;3.95;;;;;;;;;;5093607;28;20490;-74
2023/05/27 08:52:50;;;;;;;8.90;3.53;;;;;;;;;;5093505;28;20032;-74
2023/05/27 08:55:20;;;;;;;10.13;3.55;;;;;;;;;;5093370;28;20026;-74
2023/05/27 08:57:48;;;;;;;10.35;4.15;;;;;;;;;;5093774;28;20443;-75
2023/05/27 09:00:14;;;;;;;8.40;3.40;;;;;;;;;;5093301;28;20066;-75
2023/05/27 09:02:41;;;;;;;14.02;4.45;;;;;;;;;;5093454;28;20469;-75
2023/05/27 09:05:08;;;;;;;8.68;3.47;;;;;;;;;;5093239;28;20016;-74
2023/05/27 09:07:34;;;;;;;9.05;3.80;;;;;;;;;;5093103;28;20099;-74
2023/05/27 09:10:00;;;;;;;13.02;3.97;;;;;;;;;;5093044;28;20123;-74
2023/05/27 09:12:26;;;;;;;10.80;4.35;;;;;;;;;;5093139;28;20099;-74
2023/05/27 09:14:56;;;;;;;10.73;3.88;;;;;;;;;;5093061;28;20024;-75
2023/05/27 09:17:25;;;;;;;10.52;3.58;;;;;;;;;;5093057;28;20024;-75
2023/05/27 09:19:54;;;;;;;9.73;3.33;;;;;;;;;;5093012;28;20046;-75
2023/05/27 09:22:22;;;;;;;9.82;3.50;;;;;;;;;;5093003;28;20252;-75
2023/05/27 09:24:48;;;;;;;9.38;3.40;;;;;;;;;;5092900;28;20016;-75
2023/05/27 09:27:14;;;;;;;6.20;2.90;;;;;;;;;;5092878;28;20043;-74
2023/05/27 09:29:43;;;;;;;12.20;3.33;;;;;;;;;;5092771;28;20455;-75
2023/05/27 09:32:09;;;;;;;8.38;3.58;;;;;;;;;;5092833;28;20093;-75
2023/05/27 09:34:39;;;;;;;13.73;4.22;;;;;;;;;;5093071;28;20028;-75
2023/05/27 09:37:05;;;;;;;;;;;;;;;;;;5093258;28;20020;-75
2023/05/27 09:39:36;;;;;;;10.90;3.83;;;;;;;;;;5092166;28;19923;-75
2023/05/27 09:42:02;;;;;;;9.25;2.80;;;;;;;;;;5092747;28;20093;-75
2023/05/27 09:44:32;;;;;;;9.25;3.83;;;;;;;;;;5092697;28;20056;-75
2023/05/27 09:46:59;;;;;;;12.38;4.25;;;;;;;;;;5092958;28;20066;-74
2023/05/27 09:49:29;;;;;;;9.23;4.00;;;;;;;;;;5092577;28;20060;-74
2023/05/27 09:51:57;;;;;;;9.05;3.70;;;;;;;;;;5092912;28;20016;-75
2023/05/27 09:54:24;;;;;;;9.98;4.18;;;;;;;;;;5092810;28;20453;-74
2023/05/27 09:56:50;;;;;;;11.45;4.10;;;;;;;;;;5092675;28;20030;-75
2023/05/27 09:59:16;;;;;;;10.20;3.80;;;;;;;;;;5092478;28;20020;-75
2023/05/27 10:01:45;;;;;;;9.20;3.72;;;;;;;;;;5092881;28;20028;-74
2023/05/27 10:04:12;;;;;;;9.63;4.13;;;;;;;;;;5092483;28;20107;-74
2023/05/27 10:06:39;;;;;;;12.43;4.57;;;;;;;;;;5092506;28;20027;-74
2023/05/27 10:09:09;;;;;;;8.02;3.30;;;;;;;;;;5092615;28;20054;-75
2023/05/27 10:11:40;;;;;;;15.90;4.18;;;;;;;;;;5092334;28;20396;-75
2023/05/27 10:14:06;;;;;;;11.00;4.25;;;;;;;;;;5092150;28;20498;-74
2023/05/27 10:16:33;;;;;;;9.73;4.32;;;;;;;;;;5092317;28;20050;-74
2023/05/27 10:18:59;;;;;;;13.13;4.40;;;;;;;;;;5092219;28;20060;-74
2023/05/27 10:21:30;;;;;;;10.27;4.55;;;;;;;;;;5092286;28;20051;-75
2023/05/27 10:24:00;;;;;;;10.15;4.00;;;;;;;;;;5092379;28;20027;-75
2023/05/27 10:26:52;;;;;;;9.40;4.00;;;;;;;;;;5092265;28;20028;-75
2023/05/27 10:29:18;;;;;;;13.32;4.35;;;;;;;;;;5088349;28;20101;-74
2023/05/27 10:31:51;;;;;;;8.40;3.80;;;;;;;;;;5092258;28;20480;-75
2023/05/27 10:34:18;;;;;;;11.98;4.20;;;;;;;;;;5092171;28;20017;-75
2023/05/27 10:36:47;;;;;;;10.45;4.07;;;;;;;;;;5092121;28;20046;-75
2023/05/27 10:39:15;;;;;;;10.70;4.03;;;;;;;;;;5091759;28;20058;-75
2023/05/27 10:42:00;;;;;;;12.70;4.68;;;;;;;;;;5092411;28;20073;-76
2023/05/27 10:44:28;;;;;;;10.48;4.50;;;;;;;;;;5092368;28;20077;-75
2023/05/27 10:47:01;;;;;;;10.20;4.07;;;;;;;;;;5092195;28;20020;-76
2023/05/27 10:49:37;;;;;;;11.10;4.63;;;;;;;;;;5092299;28;20063;-75
2023/05/27 10:52:12;;;;;;;12.07;4.47;;;;;;;;;;5092154;28;20074;-75
2023/05/27 10:54:38;;;;;;;10.43;4.70;;;;;;;;;;5091976;28;20017;-75
2023/05/27 10:57:04;;;;;;;11.70;4.65;;;;;;;;;;5091945;28;20021;-75
2023/05/27 10:59:38;;;;;;;9.43;4.70;;;;;;;;;;5091978;28;20059;-75
2023/05/27 11:02:05;;;;;;;13.57;5.40;;;;;;;;;;5091985;28;20081;-75
2023/05/27 11:04:38;;;;;;;11.80;4.70;;;;;;;;;;5091818;28;20020;-75
2023/05/27 11:07:04;;;;;;;13.23;4.43;;;;;;;;;;5091788;28;20024;-75
2023/05/27 11:09:31;;;;;;;11.60;4.10;;;;;;;;;;5091705;28;20082;-75
2023/05/27 11:12:05;;;;;;;14.05;5.13;;;;;;;;;;5093662;28;20470;-75
2023/05/27 11:14:31;;;;;;;13.38;4.80;;;;;;;;;;5095370;28;20494;-75
2023/05/27 11:16:57;;;;;;;10.60;4.38;;;;;;;;;;5095405;28;20032;-75
2023/05/27 11:19:23;;;;;;;8.15;4.28;;;;;;;;;;5095338;28;20032;-75
2023/05/27 11:21:49;;;;;;;15.38;4.53;;;;;;;;;;5095302;28;20143;-76
2023/05/27 11:24:18;;;;;;;11.13;4.65;;;;;;;;;;5095370;28;20118;-76
2023/05/27 11:26:46;;;;;;;12.60;5.15;;;;;;;;;;5094964;28;20024;-74
2023/05/27 11:29:12;;;;;;;12.77;4.82;;;;;;;;;;5094963;28;20033;-74
2023/05/27 11:31:41;;;;;;;9.38;4.82;;;;;;;;;;5095625;28;20024;-75
2023/05/27 11:34:14;;;;;;;8.10;3.90;;;;;;;;;;5079173;28;20055;-75
2023/05/27 11:36:40;;;;;;;12.77;5.10;;;;;;;;;;5096524;28;20482;-75
2023/05/27 11:39:07;;;;;;;9.77;5.28;;;;;;;;;;5096719;28;20048;-75
2023/05/27 11:41:33;;;;;;;11.38;4.95;;;;;;;;;;5078791;28;20475;-74
2023/05/27 11:44:09;;;;;;;8.77;5.00;;;;;;;;;;5078523;28;20035;-75
2023/05/27 11:46:35;;;;;;;11.63;4.93;;;;;;;;;;5096701;28;20024;-75
2023/05/27 11:49:02;;;;;;;11.52;5.47;;;;;;;;;;5097057;28;20566;-75
2023/05/27 11:51:29;;;;;;;12.60;5.15;;;;;;;;;;5078489;28;20482;-76
2023/05/27 11:53:55;;;;;;;12.93;5.40;;;;;;;;;;5097039;28;20027;-75
2023/05/27 11:56:21;;;;;;;12.90;5.30;;;;;;;;;;5097431;28;20020;-75
2023/05/27 11:58:48;;;;;;;16.55;5.53;;;;;;;;;;5095453;28;20032;-75
2023/05/27 12:01:13;;;;;;;11.00;5.03;;;;;;;;;;5096557;28;20035;-75
2023/05/27 12:03:41;;;;;;;13.85;5.53;;;;;;;;;;5096366;28;20028;-75
2023/05/27 12:06:07;;;;;;;10.85;5.40;;;;;;;;;;5095909;28;20016;-75
2023/05/27 12:08:33;;;;;;;8.75;4.22;;;;;;;;;;5095626;28;20031;-75
2023/05/27 12:10:59;;;;;;;10.52;4.95;;;;;;;;;;5078185;28;20046;-76
2023/05/27 12:13:25;;;;;;;10.23;4.85;;;;;;;;;;5095754;28;20032;-75
2023/05/27 12:15:51;;;;;;;10.10;4.70;;;;;;;;;;5095340;28;20039;-75
2023/05/27 12:18:18;;;;;;;12.65;4.90;;;;;;;;;;5095354;28;20020;-75
2023/05/27 12:20:44;;;;;;;13.75;5.93;;;;;;;;;;5095508;28;20074;-75
2023/05/27 12:23:10;;;;;;;7.93;4.75;;;;;;;;;;5095560;28;20012;-74
2023/05/27 12:25:36;;;;;;;10.63;5.32;;;;;;;;;;5077137;28;20111;-75
2023/05/27 12:28:02;;;;;;;13.85;5.78;;;;;;;;;;5095451;28;20051;-76
2023/05/27 12:30:29;;;;;;;13.48;5.63;;;;;;;;;;5077630;28;20441;-75
2023/05/27 12:32:55;;;;;;;11.20;5.50;;;;;;;;;;5095454;28;20115;-76
2023/05/27 12:35:22;;;;;;;11.57;4.35;;;;;;;;;;5077110;28;20370;-76
2023/05/27 12:37:48;;;;;;;14.38;5.40;;;;;;;;;;5093878;28;20024;-75
2023/05/27 12:40:14;;;;;;;14.15;5.60;;;;;;;;;;5094625;28;20031;-75
2023/05/27 12:42:43;;;;;;;12.40;5.38;;;;;;;;;;5076778;28;20454;-75
2023/05/27 12:45:10;;;;;;;11.45;4.38;;;;;;;;;;5094784;28;20069;-75
2023/05/27 12:47:38;;;;;;;11.63;5.72;;;;;;;;;;5076579;28;20042;-75
2023/05/27 12:50:10;;;;;;;11.32;5.50;;;;;;;;;;5094795;28;20039;-76
2023/05/27 12:52:36;;;;;;;14.30;5.78;;;;;;;;;;5094331;28;20426;-75
2023/05/27 12:55:02;;;;;;;13.52;5.53;;;;;;;;;;5094531;28;20031;-75
2023/05/27 12:57:29;;;;;;;11.68;5.90;;;;;;;;;;5094845;28;20020;-75
2023/05/27 12:59:55;;;;;;;12.45;5.80;;;;;;;;;;5094003;28;20028;-75
2023/05/27 13:02:21;;;;;;;10.80;5.40;;;;;;;;;;5094246;28;20030;-76
2023/05/27 13:04:47;;;;;;;12.13;5.53;;;;;;;;;;5094183;28;20409;-75
2023/05/27 13:07:13;;;;;;;16.52;6.30;;;;;;;;;;5094738;28;20024;-75
2023/05/27 13:09:40;;;;;;;11.68;5.72;;;;;;;;;;5093132;28;20502;-75
2023/05/27 13:12:06;;;;;;;13.77;6.65;;;;;;;;;;5093323;28;20107;-75
2023/05/27 13:14:32;;;;;;;14.30;6.57;;;;;;;;;;5093225;28;20085;-75
2023/05/27 13:16:58;;;;;;;12.00;6.03;;;;;;;;;;5111675;28;20028;-75
2023/05/27 13:19:24;;;;;;;13.45;5.63;;;;;;;;;;5113509;28;20439;-76
2023/05/27 13:21:50;;;;;;;15.40;6.65;;;;;;;;;;5102638;28;20102;-75
2023/05/27 13:24:17;;;;;;;14.00;6.43;;;;;;;;;;5109138;28;20023;-75
2023/05/27 13:26:43;;;;;;;15.40;6.85;;;;;;;;;;5114220;28;20118;-75
2023/05/27 13:29:10;;;;;;;17.67;7.45;;;;;;;;;;5097715;28;20135;-75
2023/05/27 13:31:36;;;;;;;13.68;6.45;;;;;;;;;;5092783;28;20024;-75
2023/05/27 13:34:02;;;;;;;14.20;6.55;;;;;;;;;;5092204;28;20028;-75
2023/05/27 13:36:28;;;;;;;15.20;6.80;;;;;;;;;;5093814;28;20031;-75
2023/05/27 13:38:54;;;;;;;13.93;5.70;;;;;;;;;;5113122;28;20490;-75
2023/05/27 13:41:20;;;;;;;16.20;6.80;;;;;;;;;;5113219;28;20020;-75
2023/05/27 13:43:46;;;;;;;10.70;6.35;;;;;;;;;;5113194;28;20068;-75
2023/05/27 13:46:12;;;;;;;15.23;6.07;;;;;;;;;;5113084;28;20027;-75
2023/05/27 13:48:38;;;;;;;11.40;6.20;;;;;;;;;;5112847;28;20084;-75
2023/05/27 13:51:05;;;;;;;13.77;6.07;;;;;;;;;;5112814;28;20375;-76
2023/05/27 13:53:31;;;;;;;16.75;6.30;;;;;;;;;;5113250;28;20115;-75
2023/05/27 13:55:57;;;;;;;16.08;6.38;;;;;;;;;;5111791;28;20055;-75
2023/05/27 13:58:23;;;;;;;17.60;6.68;;;;;;;;;;5092810;28;20039;-75
2023/05/27 14:00:48;;;;;;;13.57;6.43;;;;;;;;;;5092960;28;20020;-75
2023/05/27 14:03:14;;;;;;;12.60;5.68;;;;;;;;;;5092471;28;20074;-75
2023/05/27 14:05:41;;;;;;;15.85;6.30;;;;;;;;;;5092522;28;20025;-75
2023/05/27 14:08:08;;;;;;;14.50;6.75;;;;;;;;;;5092500;28;20063;-76
2023/05/27 14:10:34;;;;;;;10.32;5.47;;;;;;;;;;5092611;28;20048;-75
2023/05/27 14:13:01;;;;;;;11.73;4.78;;;;;;;;;;5092534;28;20021;-75
2023/05/27 14:15:28;;;;;;;13.32;5.70;;;;;;;;;;5092172;28;20016;-75
2023/05/27 14:17:54;;;;;;;15.27;6.40;;;;;;;;;;5092645;28;20104;-74
2023/05/27 14:20:20;;;;;;;13.48;5.00;;;;;;;;;;5092414;28;20071;-74
2023/05/27 14:22:46;;;;;;;13.27;4.30;;;;;;;;;;5092300;28;20020;-75
2023/05/27 14:25:12;;;;;;;11.40;4.40;;;;;;;;;;5092285;28;20051;-75
2023/05/27 14:27:38;;;;;;;10.45;3.78;;;;;;;;;;5092615;28;20028;-75
2023/05/27 14:30:05;;;;;;;12.65;4.00;;;;;;;;;;5093539;28;20082;-75